Time;durP1;ratioP1;P1;durP2;ratioP2;P2;SDS_P1;SDS_P2;PMS_P1;PMS_P2;Temp;Humidity;BMP_temperature;BMP_pressure;BME280_temperature;BME280_humidity;BME280_pressure;Samples;Min_cycle;Max_cycle;Signal;HPM_P1;HPM_P2
2023/08/08 00:00:08;;;;;;;3.63;3.33;;;14.20;99.90;;;;;;5013046;28;20207;-71
2023/08/08 00:02:34;;;;;;;4.57;3.80;;;14.10;99.90;;;;;;5011945;28;20207;-70
2023/08/08 00:05:00;;;;;;;4.17;3.80;;;14.10;99.90;;;;;;5012978;28;20176;-71
2023/08/08 00:07:30;;;;;;;3.80;3.60;;;14.10;99.90;;;;;;5012786;28;20172;-71
2023/08/08 00:09:56;;;;;;;4.60;3.63;;;14.00;99.90;;;;;;5012780;28;20260;-71
2023/08/08 00:12:21;;;;;;;3.90;3.60;;;14.00;99.90;;;;;;5012178;28;20268;-71
2023/08/08 00:14:47;;;;;;;5.93;3.80;;;13.90;99.90;;;;;;5012391;28;20649;-71
2023/08/08 00:17:13;;;;;;;4.10;3.80;;;13.90;99.90;;;;;;5012665;28;20176;-70
2023/08/08 00:19:39;;;;;;;5.00;3.90;;;13.90;99.90;;;;;;5012088;28;20168;-71
2023/08/08 00:22:04;;;;;;;4.20;3.80;;;13.80;99.90;;;;;;5012311;28;20696;-71
2023/08/08 00:24:30;;;;;;;4.03;3.57;;;13.70;99.90;;;;;;5012195;28;20179;-71
2023/08/08 00:26:56;;;;;;;4.70;3.70;;;13.80;99.90;;;;;;5012594;28;20168;-71
2023/08/08 00:29:21;;;;;;;4.70;4.30;;;13.70;99.90;;;;;;5012149;28;20657;-70
2023/08/08 00:31:47;;;;;;;5.97;4.47;;;13.70;99.90;;;;;;5011993;28;20188;-71
2023/08/08 00:34:12;;;;;;;4.57;4.07;;;13.70;99.90;;;;;;5012372;28;20273;-71
2023/08/08 00:36:38;;;;;;;7.13;4.10;;;13.60;99.90;;;;;;5012008;28;20203;-71
2023/08/08 00:39:03;;;;;;;5.70;4.70;;;13.60;99.90;;;;;;5012424;28;20176;-71
2023/08/08 00:41:29;;;;;;;4.07;3.67;;;13.60;99.90;;;;;;5011985;28;20168;-71
2023/08/08 00:43:55;;;;;;;4.43;4.17;;;13.60;99.90;;;;;;5011714;28;20278;-71
2023/08/08 00:46:23;;;;;;;3.83;3.63;;;13.60;99.90;;;;;;5011924;28;20181;-72
2023/08/08 00:48:50;;;;;;;5.77;4.20;;;13.60;99.90;;;;;;5012300;28;20263;-70
2023/08/08 00:51:17;;;;;;;5.67;3.70;;;13.60;99.90;;;;;;5011818;28;20248;-70
2023/08/08 00:53:43;;;;;;;5.37;3.97;;;13.60;99.90;;;;;;5011779;28;20207;-71
2023/08/08 00:56:11;;;;;;;4.37;4.00;;;13.60;99.90;;;;;;5012028;28;20204;-71
2023/08/08 00:58:37;;;;;;;4.20;3.90;;;13.50;99.90;;;;;;5011471;28;20172;-72
2023/08/08 01:01:03;;;;;;;4.67;4.37;;;13.50;99.90;;;;;;5012216;28;20175;-71
2023/08/08 01:03:29;;;;;;;3.90;3.60;;;13.50;99.90;;;;;;5011852;28;20625;-71
2023/08/08 01:06:04;;;;;;;9.33;4.23;;;13.50;99.90;;;;;;5011911;28;20222;-71
2023/08/08 01:08:40;;;;;;;5.23;3.83;;;13.50;99.90;;;;;;5011292;28;20190;-70
2023/08/08 01:11:06;;;;;;;5.13;3.80;;;13.50;99.90;;;;;;5011921;28;20171;-71
2023/08/08 01:13:33;;;;;;;5.23;3.83;;;13.50;99.90;;;;;;5011512;28;20200;-71
2023/08/08 01:15:59;;;;;;;4.53;4.13;;;13.50;99.90;;;;;;5011659;28;20285;-71
2023/08/08 01:18:25;;;;;;;8.17;4.67;;;13.50;99.90;;;;;;5011562;28;20172;-71
2023/08/08 01:20:52;;;;;;;4.63;4.17;;;13.60;99.90;;;;;;5011849;28;20256;-71
2023/08/08 01:23:39;;;;;;;5.43;4.23;;;13.60;99.90;;;;;;5011283;28;20813;-71
2023/08/08 01:26:04;;;;;;;4.53;4.13;;;13.60;99.90;;;;;;5011871;28;20199;-71
2023/08/08 01:28:30;;;;;;;4.10;3.70;;;13.60;99.90;;;;;;5013070;28;20665;-71
2023/08/08 01:30:56;;;;;;;5.70;3.57;;;13.60;99.90;;;;;;5015800;28;20700;-71
2023/08/08 01:33:22;;;;;;;4.30;4.00;;;13.60;99.90;;;;;;5014844;28;20222;-71
2023/08/08 01:35:53;;;;;;;4.67;4.13;;;13.60;99.90;;;;;;5014430;28;20552;-71
2023/08/08 01:38:33;;;;;;;8.17;4.13;;;13.60;99.90;;;;;;5015472;28;20168;-72
2023/08/08 01:41:00;;;;;;;4.47;4.10;;;13.60;99.90;;;;;;5015447;28;20207;-70
2023/08/08 01:43:26;;;;;;;5.73;4.00;;;13.50;99.90;;;;;;5014830;28;20192;-71
2023/08/08 01:45:53;;;;;;;4.03;3.73;;;13.50;99.90;;;;;;5015479;28;20180;-71
2023/08/08 01:48:19;;;;;;;5.00;4.60;;;13.40;99.90;;;;;;5015315;28;20671;-70
2023/08/08 01:50:44;;;;;;;5.00;4.57;;;13.40;99.90;;;;;;5015371;28;20180;-70
2023/08/08 01:53:10;;;;;;;4.80;4.40;;;13.40;99.90;;;;;;5014966;28;20343;-71
2023/08/08 01:55:36;;;;;;;5.23;4.37;;;13.30;99.90;;;;;;5015214;28;20188;-70
2023/08/08 01:58:01;;;;;;;4.27;3.87;;;13.30;99.90;;;;;;5014681;28;20186;-71
2023/08/08 02:00:27;;;;;;;4.40;4.10;;;13.30;99.90;;;;;;5015160;28;20172;-71
2023/08/08 02:02:52;;;;;;;4.47;4.17;;;13.30;99.90;;;;;;5014609;28;20196;-70
2023/08/08 02:05:18;;;;;;;4.20;3.90;;;13.30;99.90;;;;;;5014937;28;20183;-71
2023/08/08 02:07:44;;;;;;;4.80;4.20;;;13.30;99.90;;;;;;5015041;28;20176;-71
2023/08/08 02:10:09;;;;;;;7.47;4.73;;;13.20;99.90;;;;;;5015096;28;20657;-70
2023/08/08 02:12:35;;;;;;;5.40;4.60;;;13.20;99.90;;;;;;5014394;28;20195;-71
2023/08/08 02:15:00;;;;;;;4.90;4.50;;;13.20;99.90;;;;;;5013284;28;20250;-71
2023/08/08 02:17:26;;;;;;;5.33;4.83;;;13.20;99.90;;;;;;5014300;28;20622;-70
2023/08/08 02:19:52;;;;;;;5.43;4.77;;;13.10;99.90;;;;;;5014911;28;20653;-70
2023/08/08 02:22:18;;;;;;;4.77;4.23;;;13.10;99.90;;;;;;5014210;28;20207;-71
2023/08/08 02:24:44;;;;;;;4.53;4.00;;;13.10;99.90;;;;;;5014529;28;20172;-71
2023/08/08 02:27:11;;;;;;;9.03;4.60;;;13.10;99.90;;;;;;5014387;28;20227;-70
2023/08/08 02:29:36;;;;;;;7.60;4.57;;;13.10;99.90;;;;;;5014460;28;20668;-70
2023/08/08 02:32:02;;;;;;;4.87;4.47;;;13.10;99.90;;;;;;5014225;28;20184;-71
2023/08/08 02:34:28;;;;;;;4.73;4.20;;;13.10;99.90;;;;;;5014592;28;20192;-69
2023/08/08 02:36:53;;;;;;;6.13;4.70;;;13.00;99.90;;;;;;5014360;28;20571;-69
2023/08/08 02:39:19;;;;;;;4.60;4.20;;;13.10;99.90;;;;;;5014329;28;20172;-69
2023/08/08 02:41:45;;;;;;;4.93;4.40;;;13.00;99.90;;;;;;5014083;28;20439;-69
2023/08/08 02:44:10;;;;;;;4.60;4.20;;;13.00;99.90;;;;;;5014697;28;20184;-69
2023/08/08 02:46:37;;;;;;;4.77;4.30;;;13.00;99.90;;;;;;5012800;28;20186;-69
2023/08/08 02:49:04;;;;;;;4.70;4.40;;;13.00;99.90;;;;;;5013058;28;20179;-69
2023/08/08 02:51:29;;;;;;;5.30;4.53;;;13.00;99.90;;;;;;5013894;28;20201;-69
2023/08/08 02:53:55;;;;;;;4.93;4.53;;;12.90;99.90;;;;;;5013821;28;20265;-69
2023/08/08 02:56:21;;;;;;;4.93;4.50;;;12.90;99.90;;;;;;5013439;28;20231;-68
2023/08/08 02:58:46;;;;;;;5.93;4.87;;;12.80;99.90;;;;;;5014090;28;20168;-69
2023/08/08 03:01:15;;;;;;;5.20;4.70;;;12.80;99.90;;;;;;5012533;28;20176;-70
2023/08/08 03:03:42;;;;;;;4.87;4.47;;;12.80;99.90;;;;;;5013931;28;20275;-69
2023/08/08 03:06:08;;;;;;;6.50;4.67;;;12.80;99.90;;;;;;5014065;28;20176;-69
2023/08/08 03:08:33;;;;;;;4.60;4.20;;;12.80;99.90;;;;;;5012169;28;20183;-68
2023/08/08 03:10:59;;;;;;;4.80;4.30;;;12.90;99.90;;;;;;5014082;28;20579;-69
2023/08/08 03:13:24;;;;;;;5.53;4.20;;;12.80;99.90;;;;;;5013553;28;20271;-69
2023/08/08 03:15:50;;;;;;;5.27;4.77;;;12.80;99.90;;;;;;5013653;28;20684;-69
2023/08/08 03:18:16;;;;;;;4.60;4.20;;;12.80;99.90;;;;;;5012491;28;20215;-69
2023/08/08 03:20:41;;;;;;;6.87;4.73;;;12.80;99.90;;;;;;5013648;28;20203;-68
2023/08/08 03:23:07;;;;;;;5.23;4.73;;;12.80;99.90;;;;;;5013013;28;20200;-69
2023/08/08 03:25:33;;;;;;;4.97;4.60;;;12.80;99.90;;;;;;5013643;28;20183;-69
2023/08/08 03:27:58;;;;;;;4.90;4.10;;;12.80;99.90;;;;;;5013625;28;20176;-69
2023/08/08 03:30:24;;;;;;;4.63;4.33;;;12.80;99.90;;;;;;5012171;28;20521;-69
2023/08/08 03:32:50;;;;;;;8.07;4.20;;;12.80;99.90;;;;;;5011688;28;20275;-69
2023/08/08 03:35:15;;;;;;;7.00;4.97;;;12.80;99.90;;;;;;5012933;28;20653;-70
2023/08/08 03:37:42;;;;;;;7.27;4.30;;;12.80;99.90;;;;;;5013307;28;20206;-70
2023/08/08 03:40:08;;;;;;;5.40;4.10;;;12.80;99.90;;;;;;5013174;28;20164;-70
2023/08/08 03:42:33;;;;;;;4.77;4.30;;;12.80;99.90;;;;;;5012477;28;20192;-70
2023/08/08 03:44:59;;;;;;;9.30;4.33;;;12.80;99.90;;;;;;5013198;28;20247;-70
2023/08/08 03:47:25;;;;;;;4.83;4.43;;;12.80;99.90;;;;;;5013022;28;20180;-70
2023/08/08 03:49:54;;;;;;;5.77;4.67;;;12.80;99.90;;;;;;5012298;28;20287;-70
2023/08/08 03:52:20;;;;;;;5.37;4.60;;;12.80;99.90;;;;;;5012941;28;20271;-71
2023/08/08 03:54:46;;;;;;;10.10;4.60;;;12.80;99.90;;;;;;5012893;28;20213;-69
2023/08/08 03:57:12;;;;;;;6.50;5.07;;;12.80;99.90;;;;;;5013042;28;20180;-70
2023/08/08 03:59:37;;;;;;;6.30;4.60;;;12.80;99.90;;;;;;5012753;28;20175;-70
2023/08/08 04:02:04;;;;;;;7.93;4.43;;;12.80;99.90;;;;;;5011069;28;20168;-69
2023/08/08 04:04:29;;;;;;;5.20;4.60;;;12.80;99.90;;;;;;5011304;28;20600;-70
2023/08/08 04:06:55;;;;;;;6.43;4.80;;;12.90;99.90;;;;;;5011999;28;20361;-70
2023/08/08 04:09:20;;;;;;;4.73;4.30;;;12.80;99.90;;;;;;5012077;28;20176;-70
2023/08/08 04:11:46;;;;;;;5.90;4.67;;;12.80;99.90;;;;;;5012972;28;20180;-70
2023/08/08 04:14:12;;;;;;;7.53;4.87;;;12.90;99.90;;;;;;5012564;28;20247;-71
2023/08/08 04:16:39;;;;;;;5.20;4.70;;;12.90;99.90;;;;;;5012462;28;20243;-70
2023/08/08 04:19:05;;;;;;;7.00;5.00;;;12.90;99.90;;;;;;5012832;28;20172;-70
2023/08/08 04:21:32;;;;;;;5.67;4.83;;;13.00;99.90;;;;;;5011925;28;20557;-70
2023/08/08 04:23:59;;;;;;;5.40;4.57;;;13.00;99.90;;;;;;5011190;28;20200;-69
2023/08/08 04:26:25;;;;;;;6.17;5.00;;;13.00;99.90;;;;;;5012496;28;20212;-70
2023/08/08 04:28:50;;;;;;;4.77;4.13;;;13.00;99.90;;;;;;5012289;28;20180;-70
2023/08/08 04:31:16;;;;;;;5.37;4.70;;;13.00;99.90;;;;;;5012011;28;20530;-70
2023/08/08 04:33:41;;;;;;;5.73;4.90;;;13.00;99.90;;;;;;5011356;28;20307;-70
2023/08/08 04:36:07;;;;;;;5.40;4.90;;;13.00;99.90;;;;;;5012187;28;20669;-70
2023/08/08 04:38:33;;;;;;;9.70;5.00;;;13.00;99.90;;;;;;5011601;28;20234;-71
2023/08/08 04:40:59;;;;;;;6.77;4.53;;;13.00;99.90;;;;;;5012110;28;20215;-70
2023/08/08 04:43:24;;;;;;;6.60;4.73;;;13.00;99.90;;;;;;5011803;28;20223;-70
2023/08/08 04:45:50;;;;;;;7.30;5.40;;;13.00;99.90;;;;;;5011810;28;20214;-71
2023/08/08 04:48:16;;;;;;;10.10;5.00;;;13.00;99.90;;;;;;5012226;28;20187;-70
2023/08/08 04:50:42;;;;;;;8.73;6.13;;;13.10;99.90;;;;;;5012130;28;20184;-70
2023/08/08 04:53:07;;;;;;;5.57;4.87;;;13.20;99.90;;;;;;5011864;28;20203;-71
2023/08/08 04:55:33;;;;;;;6.30;4.80;;;13.30;99.90;;;;;;5010365;28;20249;-70
2023/08/08 04:57:58;;;;;;;7.47;5.60;;;13.40;99.90;;;;;;5011936;28;20169;-71
2023/08/08 05:00:26;;;;;;;5.33;4.90;;;13.60;99.90;;;;;;5011924;28;20547;-70
2023/08/08 05:02:51;;;;;;;5.03;4.53;;;13.70;99.90;;;;;;5010496;28;20261;-69
2023/08/08 05:05:17;;;;;;;11.17;5.07;;;13.80;99.90;;;;;;5011905;28;20176;-70
2023/08/08 05:07:42;;;;;;;5.17;4.53;;;13.90;99.90;;;;;;5011834;28;20681;-70
2023/08/08 05:10:08;;;;;;;8.40;4.87;;;14.00;99.90;;;;;;5010357;28;20214;-70
2023/08/08 05:12:34;;;;;;;6.97;5.37;;;14.10;99.90;;;;;;5011191;28;20207;-69
2023/08/08 05:14:59;;;;;;;4.70;4.37;;;14.20;99.90;;;;;;5011690;28;20307;-69
2023/08/08 05:17:25;;;;;;;5.17;4.80;;;14.20;99.90;;;;;;5011645;28;20275;-69
2023/08/08 05:19:50;;;;;;;5.23;4.33;;;14.30;99.90;;;;;;5010335;28;20537;-70
2023/08/08 05:22:16;;;;;;;7.03;4.53;;;14.40;99.90;;;;;;5011555;28;20187;-70
2023/08/08 05:24:42;;;;;;;5.67;5.10;;;14.40;99.90;;;;;;5010712;28;20259;-70
2023/08/08 05:27:07;;;;;;;8.87;4.67;;;14.40;99.90;;;;;;5011308;28;20186;-70
2023/08/08 05:29:34;;;;;;;5.73;5.13;;;14.50;99.90;;;;;;5011420;28;20563;-70
2023/08/08 05:31:59;;;;;;;9.13;4.93;;;14.50;99.90;;;;;;5009911;28;20180;-70
2023/08/08 05:34:25;;;;;;;12.20;4.83;;;14.60;99.90;;;;;;5011007;28;20195;-70
2023/08/08 05:36:50;;;;;;;5.67;4.90;;;14.70;99.90;;;;;;5011442;28;20657;-70
2023/08/08 05:39:16;;;;;;;9.00;5.27;;;14.80;99.90;;;;;;5011525;28;20214;-70
2023/08/08 05:41:42;;;;;;;7.03;4.97;;;14.80;99.90;;;;;;5011236;28;20617;-70
2023/08/08 05:44:07;;;;;;;11.63;5.20;;;14.80;99.90;;;;;;5011002;28;20275;-70
2023/08/08 05:46:33;;;;;;;5.03;4.53;;;14.80;99.90;;;;;;5009276;28;20180;-70
2023/08/08 05:48:58;;;;;;;5.43;4.53;;;14.90;99.90;;;;;;5011259;28;20266;-70
2023/08/08 05:51:24;;;;;;;11.60;5.87;;;15.00;99.90;;;;;;5011083;28;20634;-70
2023/08/08 05:53:49;;;;;;;6.10;4.63;;;15.20;99.90;;;;;;5011373;28;20291;-70
2023/08/08 05:56:15;;;;;;;5.00;4.37;;;15.40;99.90;;;;;;5011360;28;20250;-71
2023/08/08 05:58:41;;;;;;;7.57;4.47;;;15.50;99.90;;;;;;5012711;28;20179;-71
2023/08/08 06:01:09;;;;;;;7.73;4.50;;;15.50;99.90;;;;;;5010092;28;20192;-74
2023/08/08 06:03:35;;;;;;;6.13;4.60;;;15.60;99.90;;;;;;5010733;28;20303;-71
2023/08/08 06:06:01;;;;;;;5.13;4.27;;;15.60;99.90;;;;;;5011384;28;20168;-70
2023/08/08 06:08:26;;;;;;;6.20;4.40;;;15.80;99.90;;;;;;5011604;28;20508;-70
2023/08/08 06:10:52;;;;;;;7.43;4.87;;;15.90;99.90;;;;;;5011102;28;20191;-70
2023/08/08 06:13:18;;;;;;;6.00;4.47;;;16.10;99.90;;;;;;5011959;28;20223;-71
2023/08/08 06:15:43;;;;;;;6.87;4.33;;;16.30;99.90;;;;;;5014922;28;20219;-71
2023/08/08 06:18:09;;;;;;;7.90;4.00;;;16.50;99.90;;;;;;5014892;28;20172;-70
2023/08/08 06:20:35;;;;;;;5.50;3.83;;;16.80;99.90;;;;;;5014656;28;20317;-70
2023/08/08 06:23:00;;;;;;;4.77;4.10;;;17.10;99.90;;;;;;5014283;28;20192;-71
2023/08/08 06:25:26;;;;;;;5.77;3.63;;;17.40;99.90;;;;;;5013253;28;20184;-71
2023/08/08 06:27:51;;;;;;;4.53;4.13;;;17.60;99.90;;;;;;5014369;28;20270;-71
2023/08/08 06:30:17;;;;;;;9.03;4.23;;;17.90;99.90;;;;;;5014330;28;20172;-71
2023/08/08 06:32:43;;;;;;;6.00;4.17;;;18.10;99.90;;;;;;5013730;28;20231;-70
2023/08/08 06:35:09;;;;;;;4.87;4.00;;;18.10;99.90;;;;;;5014176;28;20196;-71
2023/08/08 06:37:34;;;;;;;5.80;3.97;;;17.80;99.90;;;;;;5014244;28;20176;-70
2023/08/08 06:40:00;;;;;;;6.50;4.03;;;17.40;99.90;;;;;;5013064;28;20176;-70
2023/08/08 06:42:25;;;;;;;7.10;4.00;;;17.10;99.90;;;;;;5014150;28;20204;-70
2023/08/08 06:44:51;;;;;;;5.83;3.70;;;16.90;99.90;;;;;;5014092;28;20684;-71
2023/08/08 06:47:17;;;;;;;5.13;3.43;;;16.80;99.90;;;;;;5014200;28;20179;-71
2023/08/08 06:49:42;;;;;;;3.80;3.50;;;16.80;99.90;;;;;;5013095;28;20527;-70
2023/08/08 06:52:08;;;;;;;6.03;3.90;;;16.90;99.90;;;;;;5012998;28;20184;-71
2023/08/08 06:54:34;;;;;;;6.67;3.77;;;17.10;99.90;;;;;;5013852;28;20657;-70
2023/08/08 06:57:01;;;;;;;7.70;4.93;;;17.50;99.90;;;;;;5012838;28;20232;-71
2023/08/08 06:59:27;;;;;;;5.23;3.33;;;17.60;99.90;;;;;;5014458;28;20175;-70
2023/08/08 07:01:53;;;;;;;10.00;3.90;;;17.50;99.90;;;;;;5012529;28;20180;-70
2023/08/08 07:04:19;;;;;;;7.43;4.00;;;17.30;99.90;;;;;;5013474;28;20250;-70
2023/08/08 07:06:44;;;;;;;5.10;3.73;;;17.20;99.90;;;;;;5013690;28;20703;-71
2023/08/08 07:09:11;;;;;;;9.67;4.83;;;17.10;99.90;;;;;;5013888;28;20184;-71
2023/08/08 07:11:37;;;;;;;7.97;4.33;;;17.00;99.90;;;;;;5012106;28;20180;-71
2023/08/08 07:14:03;;;;;;;5.60;3.83;;;16.90;99.90;;;;;;5013697;28;20515;-71
2023/08/08 07:16:28;;;;;;;6.13;3.60;;;17.00;99.90;;;;;;5013401;28;20211;-72
2023/08/08 07:18:54;;;;;;;8.13;3.97;;;17.00;99.90;;;;;;5013308;28;20207;-70
2023/08/08 07:21:20;;;;;;;8.90;4.10;;;17.10;99.90;;;;;;5012979;28;20192;-70
2023/08/08 07:23:46;;;;;;;6.70;3.87;;;17.10;99.90;;;;;;5013518;28;20648;-70
2023/08/08 07:26:11;;;;;;;5.33;3.97;;;17.20;99.90;;;;;;5012786;28;20212;-71
2023/08/08 07:28:37;;;;;;;5.53;4.20;;;17.20;99.90;;;;;;5012827;28;20203;-69
2023/08/08 07:31:03;;;;;;;9.07;4.03;;;17.20;99.90;;;;;;5013375;28;20634;-71
2023/08/08 07:33:28;;;;;;;5.83;3.93;;;17.20;99.90;;;;;;5012738;28;20212;-70
2023/08/08 07:35:54;;;;;;;9.73;4.27;;;17.40;99.90;;;;;;5013421;28;20270;-70
2023/08/08 07:38:20;;;;;;;6.57;4.30;;;17.70;99.90;;;;;;5013136;28;20176;-70
2023/08/08 07:40:45;;;;;;;6.70;3.97;;;17.70;99.90;;;;;;5013093;28;20622;-71
2023/08/08 07:43:11;;;;;;;5.53;4.17;;;17.70;99.90;;;;;;5012627;28;20204;-71
2023/08/08 07:45:37;;;;;;;4.17;3.87;;;17.70;99.90;;;;;;5011255;28;20180;-71
2023/08/08 07:48:04;;;;;;;6.37;4.60;;;17.80;99.90;;;;;;5011788;28;20204;-70
2023/08/08 07:50:29;;;;;;;7.23;4.13;;;18.00;99.90;;;;;;5011661;28;20184;-71
2023/08/08 07:52:55;;;;;;;6.57;4.20;;;18.20;99.90;;;;;;5011250;28;20212;-70
2023/08/08 07:55:20;;;;;;;8.33;4.70;;;18.60;99.90;;;;;;5011721;28;20200;-71
2023/08/08 07:57:46;;;;;;;4.37;3.73;;;18.60;99.90;;;;;;5012829;28;20256;-72
2023/08/08 08:00:12;;;;;;;7.93;3.87;;;18.50;99.90;;;;;;5012175;28;20180;-71
2023/08/08 08:02:46;;;;;;;6.70;4.13;;;18.40;99.90;;;;;;5012363;28;20282;-71
2023/08/08 08:05:13;;;;;;;8.00;5.00;;;18.60;99.90;;;;;;5012289;28;20179;-70
2023/08/08 08:07:39;;;;;;;6.07;4.30;;;18.60;99.90;;;;;;5012355;28;20184;-70
2023/08/08 08:10:08;;;;;;;8.53;4.37;;;18.40;99.90;;;;;;5012694;28;20176;-71
2023/08/08 08:12:35;;;;;;;12.17;4.27;;;18.20;99.90;;;;;;5011600;28;20196;-71
2023/08/08 08:15:01;;;;;;;6.30;4.97;;;18.00;99.90;;;;;;5011885;28;20185;-71
2023/08/08 08:17:28;;;;;;;8.17;4.93;;;17.80;99.90;;;;;;5012180;28;20186;-71
2023/08/08 08:19:54;;;;;;;10.97;4.83;;;17.60;99.90;;;;;;5012645;28;20251;-70
2023/08/08 08:22:19;;;;;;;10.40;5.33;;;17.40;99.90;;;;;;5011797;28;20611;-70
2023/08/08 08:24:45;;;;;;;8.47;5.67;;;17.10;99.90;;;;;;5011032;28;20180;-71
2023/08/08 08:27:12;;;;;;;7.30;5.83;;;16.80;99.90;;;;;;5011601;28;20192;-71
2023/08/08 08:29:37;;;;;;;10.60;6.53;;;16.50;99.90;;;;;;5012056;28;20188;-70
2023/08/08 08:32:03;;;;;;;16.20;6.80;;;16.40;99.90;;;;;;5011940;28;20184;-70
2023/08/08 08:34:29;;;;;;;7.70;6.30;;;16.40;99.90;;;;;;5011724;28;20196;-70
2023/08/08 08:36:54;;;;;;;8.80;6.60;;;16.30;99.90;;;;;;5011792;28;20741;-70
2023/08/08 08:39:20;;;;;;;7.57;5.57;;;16.40;99.90;;;;;;5011579;28;20180;-71
2023/08/08 08:41:49;;;;;;;8.27;5.07;;;16.40;99.90;;;;;;5011277;28;20538;-70
2023/08/08 08:44:16;;;;;;;8.97;6.33;;;16.30;99.90;;;;;;5011416;28;20192;-71
2023/08/08 08:46:42;;;;;;;10.30;5.73;;;16.40;99.90;;;;;;5011792;28;20187;-71
2023/08/08 08:49:09;;;;;;;10.40;5.50;;;16.40;99.90;;;;;;5011955;28;20176;-70
2023/08/08 08:51:36;;;;;;;10.53;5.73;;;16.50;99.90;;;;;;5012030;28;20176;-71
2023/08/08 08:54:02;;;;;;;7.77;5.13;;;16.50;99.90;;;;;;5011746;28;20200;-70
2023/08/08 08:56:28;;;;;;;10.53;5.93;;;16.50;99.90;;;;;;5009781;28;20247;-71
2023/08/08 08:58:54;;;;;;;8.03;4.70;;;16.60;99.90;;;;;;5010203;28;20567;-70
2023/08/08 09:01:23;;;;;;;7.20;5.10;;;16.70;99.90;;;;;;5011264;28;20251;-71
2023/08/08 09:03:49;;;;;;;12.17;5.47;;;16.70;99.90;;;;;;5011314;28;20253;-71
2023/08/08 09:06:16;;;;;;;8.80;5.07;;;16.80;99.90;;;;;;5011617;28;20176;-71
2023/08/08 09:08:41;;;;;;;5.20;4.60;;;16.90;99.90;;;;;;5011634;28;20231;-71
2023/08/08 09:11:08;;;;;;;5.97;4.60;;;17.10;99.90;;;;;;5011634;28;20172;-70
2023/08/08 09:13:38;;;;;;;4.93;4.33;;;17.20;99.90;;;;;;5010980;28;20571;-72
2023/08/08 09:16:06;;;;;;;5.20;4.57;;;17.30;99.90;;;;;;5011658;28;20200;-72
2023/08/08 09:18:32;;;;;;;6.67;4.37;;;17.40;99.90;;;;;;5011538;28;20543;-71
2023/08/08 09:20:58;;;;;;;5.70;4.60;;;17.50;99.90;;;;;;5011280;28;20176;-71
2023/08/08 09:23:24;;;;;;;7.27;4.30;;;17.60;99.90;;;;;;5009131;28;20575;-70
2023/08/08 09:25:50;;;;;;;4.37;4.00;;;17.60;99.90;;;;;;5011460;28;20186;-71
2023/08/08 09:28:16;;;;;;;8.07;4.70;;;17.50;99.90;;;;;;5010515;28;20180;-70
2023/08/08 09:30:42;;;;;;;4.83;4.37;;;17.50;99.90;;;;;;5011357;28;20191;-71
2023/08/08 09:33:08;;;;;;;4.93;3.77;;;17.40;99.90;;;;;;5011305;28;20696;-71
2023/08/08 09:35:34;;;;;;;6.17;4.00;;;17.50;99.90;;;;;;5011327;28;20199;-71
2023/08/08 09:38:00;;;;;;;4.93;4.37;;;17.60;99.90;;;;;;5011524;28;20266;-71
2023/08/08 09:40:25;;;;;;;8.47;4.27;;;17.60;99.90;;;;;;5011379;28;20247;-71
2023/08/08 09:42:53;;;;;;;9.63;4.40;;;17.80;99.90;;;;;;5009148;28;20653;-70
2023/08/08 09:45:19;;;;;;;9.00;4.53;;;18.10;99.90;;;;;;5011295;28;20571;-71
2023/08/08 09:47:45;;;;;;;8.17;4.33;;;18.30;99.90;;;;;;5011505;28;20172;-71
2023/08/08 09:50:11;;;;;;;8.43;4.40;;;18.40;99.90;;;;;;5015421;28;20208;-70
2023/08/08 09:52:38;;;;;;;5.33;3.77;;;18.40;99.90;;;;;;5014487;28;20230;-70
2023/08/08 09:55:05;;;;;;;4.87;4.00;;;18.40;99.90;;;;;;5013405;28;20184;-70
2023/08/08 09:57:32;;;;;;;4.77;3.80;;;18.30;99.90;;;;;;5013546;28;20199;-70
2023/08/08 09:59:58;;;;;;;5.67;4.50;;;18.30;99.90;;;;;;5014880;28;20176;-70
2023/08/08 10:02:24;;;;;;;4.90;4.30;;;18.30;99.90;;;;;;5014557;28;20242;-70
2023/08/08 10:04:50;;;;;;;9.00;5.10;;;18.20;99.90;;;;;;5014931;28;20176;-70
2023/08/08 10:07:16;;;;;;;6.03;4.40;;;18.30;99.90;;;;;;5014836;28;20656;-72
2023/08/08 10:09:42;;;;;;;4.37;4.03;;;18.50;99.90;;;;;;5014912;28;20177;-71
2023/08/08 10:12:08;;;;;;;5.80;3.60;;;18.70;99.90;;;;;;5014666;28;20622;-70
2023/08/08 10:14:38;;;;;;;4.93;3.97;;;19.00;99.90;;;;;;5014375;28;20533;-70
2023/08/08 10:17:04;;;;;;;4.60;3.70;;;19.40;99.90;;;;;;5014609;28;20207;-71
2023/08/08 10:19:30;;;;;;;4.97;4.37;;;19.60;99.90;;;;;;5014727;28;20256;-70
2023/08/08 10:21:58;;;;;;;3.80;3.40;;;19.80;99.90;;;;;;5013536;28;20263;-72
2023/08/08 10:24:24;;;;;;;7.90;3.83;;;20.00;99.90;;;;;;5014294;28;20180;-71
2023/08/08 10:27:01;;;;;;;4.20;3.80;;;20.20;99.90;;;;;;5014205;28;20287;-70
2023/08/08 10:29:29;;;;;;;4.20;3.57;;;20.30;99.90;;;;;;4994948;28;20173;-71
2023/08/08 10:32:01;;;;;;;3.63;3.33;;;20.20;99.90;;;;;;4994579;28;20259;-71
2023/08/08 10:34:43;;;;;;;3.50;3.20;;;20.10;99.90;;;;;;4995513;28;20185;-71
2023/08/08 10:37:27;;;;;;;5.80;4.30;;;19.90;99.90;;;;;;5011199;28;20350;-71
2023/08/08 10:40:05;;;;;;;3.67;3.37;;;19.80;99.90;;;;;;5014701;28;20234;-71
2023/08/08 10:42:31;;;;;;;7.40;3.30;;;19.40;99.90;;;;;;5013726;28;20655;-71
2023/08/08 10:44:59;;;;;;;3.83;3.33;;;19.10;99.90;;;;;;5014240;28;20247;-71
2023/08/08 10:47:35;;;;;;;4.67;3.47;;;18.90;99.90;;;;;;5014420;28;20656;-70
2023/08/08 10:50:11;;;;;;;7.00;3.10;;;18.80;99.90;;;;;;5014424;28;20251;-69
2023/08/08 10:52:51;;;;;;;5.43;3.77;;;18.60;99.90;;;;;;5014011;28;20839;-71
2023/08/08 10:55:36;;;;;;;5.57;3.93;;;18.50;99.90;;;;;;5014327;28;20248;-69
2023/08/08 10:58:19;;;;;;;6.70;4.23;;;18.60;99.90;;;;;;5014052;28;20192;-71
2023/08/08 11:00:45;;;;;;;3.50;3.20;;;18.70;99.90;;;;;;5011598;28;20517;-71
2023/08/08 11:03:11;;;;;;;7.07;3.37;;;18.90;99.90;;;;;;5013654;28;20447;-70
2023/08/08 11:05:38;;;;;;;4.20;3.43;;;18.90;99.90;;;;;;5013296;28;20195;-70
2023/08/08 11:08:06;;;;;;;8.97;4.17;;;18.80;99.90;;;;;;5013978;28;20180;-70
2023/08/08 11:10:37;;;;;;;4.90;3.43;;;18.80;99.90;;;;;;5013597;28;20188;-70
2023/08/08 11:13:05;;;;;;;4.23;3.60;;;18.60;99.90;;;;;;5013461;28;20227;-70
2023/08/08 11:15:33;;;;;;;6.10;3.40;;;18.40;99.90;;;;;;5013797;28;20610;-71
2023/08/08 11:17:59;;;;;;;4.00;3.40;;;18.40;99.90;;;;;;5013949;28;20180;-70
2023/08/08 11:20:29;;;;;;;3.93;3.30;;;18.30;99.90;;;;;;5013533;28;20247;-71
2023/08/08 11:22:56;;;;;;;4.03;3.00;;;18.30;99.90;;;;;;5012503;28;20191;-71
2023/08/08 11:25:25;;;;;;;5.30;3.87;;;18.50;99.90;;;;;;5013231;28;20259;-70
2023/08/08 11:27:54;;;;;;;4.87;3.30;;;18.50;99.90;;;;;;5013633;28;20646;-70
2023/08/08 11:30:21;;;;;;;3.70;3.00;;;18.60;99.90;;;;;;5012637;28;20529;-70
2023/08/08 11:32:48;;;;;;;5.17;3.63;;;18.60;99.90;;;;;;5013129;28;20196;-69
2023/08/08 11:35:18;;;;;;;7.03;3.50;;;18.70;99.90;;;;;;5011927;28;20261;-70
2023/08/08 11:37:46;;;;;;;5.07;3.57;;;18.70;99.90;;;;;;5013548;28;20590;-70
2023/08/08 11:40:13;;;;;;;4.43;3.07;;;18.80;99.90;;;;;;5012235;28;20649;-71
2023/08/08 11:42:40;;;;;;;4.83;3.80;;;18.80;99.90;;;;;;5012905;28;20188;-70
2023/08/08 11:45:09;;;;;;;5.47;3.30;;;18.70;99.90;;;;;;5013361;28;20574;-71
2023/08/08 11:47:36;;;;;;;6.57;3.40;;;18.70;99.90;;;;;;5013021;28;20200;-71
2023/08/08 11:50:04;;;;;;;3.63;3.33;;;18.80;99.90;;;;;;5013218;28;20187;-71
2023/08/08 11:52:30;;;;;;;3.73;3.53;;;18.90;99.90;;;;;;5012778;28;20219;-71
2023/08/08 11:54:55;;;;;;;7.10;3.63;;;18.80;99.90;;;;;;5013063;28;20180;-71
2023/08/08 11:57:21;;;;;;;3.80;3.20;;;18.90;99.90;;;;;;5013210;28;20269;-71
2023/08/08 11:59:49;;;;;;;7.80;4.07;;;19.00;99.90;;;;;;5011941;28;20259;-71
2023/08/08 12:02:15;;;;;;;3.70;3.40;;;18.90;99.90;;;;;;5012666;28;20168;-71
2023/08/08 12:04:47;;;;;;;3.93;3.53;;;18.70;99.90;;;;;;5012663;28;20188;-71
2023/08/08 12:07:13;;;;;;;3.90;3.60;;;18.70;99.90;;;;;;5012160;28;20267;-72
2023/08/08 12:09:39;;;;;;;5.93;3.63;;;18.60;99.90;;;;;;5012734;28;20259;-71
2023/08/08 12:12:05;;;;;;;3.70;3.40;;;18.50;99.90;;;;;;5011942;28;20176;-71
2023/08/08 12:14:39;;;;;;;3.80;3.50;;;18.60;99.90;;;;;;5012327;28;20263;-71
2023/08/08 12:17:05;;;;;;;4.77;4.37;;;18.60;99.90;;;;;;5012629;28;20206;-70
2023/08/08 12:19:31;;;;;;;4.03;3.60;;;18.60;99.90;;;;;;5012667;28;20176;-71
2023/08/08 12:21:56;;;;;;;4.00;3.53;;;18.60;99.90;;;;;;5011974;28;20716;-71
2023/08/08 12:24:22;;;;;;;7.53;3.93;;;18.70;99.90;;;;;;5012410;28;20250;-70
2023/08/08 12:26:48;;;;;;;7.13;4.07;;;18.60;99.90;;;;;;5012549;28;20222;-71
2023/08/08 12:29:14;;;;;;;6.13;4.10;;;18.40;99.90;;;;;;5012475;28;20184;-71
2023/08/08 12:31:39;;;;;;;7.37;4.17;;;18.30;99.90;;;;;;5012119;28;20597;-71
2023/08/08 12:34:05;;;;;;;6.37;4.43;;;18.10;99.90;;;;;;5011374;28;20302;-71
2023/08/08 12:36:31;;;;;;;5.30;4.70;;;17.80;99.90;;;;;;5012347;28;20227;-72
2023/08/08 12:38:57;;;;;;;5.93;4.27;;;17.60;99.90;;;;;;5012111;28;20247;-72
2023/08/08 12:41:24;;;;;;;5.10;4.60;;;17.40;99.90;;;;;;5012107;28;20182;-72